createdAt,value
2022-09-29T00:00:46.436Z,2.13
2022-09-29T00:01:50.208Z,1.70
2022-09-29T00:02:53.501Z,1.70
2022-09-29T00:03:55.569Z,1.70
2022-09-29T00:04:58.674Z,1.85
2022-09-29T00:06:00.629Z,1.90
2022-09-29T00:07:03.650Z,1.60
2022-09-29T00:08:05.823Z,2.15
2022-09-29T00:09:08.722Z,1.90
2022-09-29T00:10:11.023Z,2.20
2022-09-29T00:11:16.074Z,2.30
2022-09-29T00:12:18.045Z,1.60
2022-09-29T00:13:21.181Z,1.73
2022-09-29T00:14:24.136Z,2.00
2022-09-29T00:15:27.116Z,2.10
2022-09-29T00:16:29.412Z,1.50
2022-09-29T00:17:33.925Z,1.70
2022-09-29T00:18:37.532Z,1.88
2022-09-29T00:19:39.526Z,1.90
2022-09-29T00:20:42.768Z,1.83
2022-09-29T00:21:44.868Z,2.00
2022-09-29T00:22:51.430Z,2.00
2022-09-29T00:23:54.426Z,2.35
2022-09-29T00:24:57.029Z,1.88
2022-09-29T00:26:05.057Z,1.70
2022-09-29T00:27:07.043Z,1.52
2022-09-29T00:28:09.990Z,1.52
2022-09-29T00:29:11.917Z,1.70
2022-09-29T00:30:14.931Z,1.85
2022-09-29T00:31:17.043Z,1.60
2022-09-29T00:32:20.198Z,1.90
2022-09-29T00:33:23.594Z,1.95
2022-09-29T00:34:26.517Z,1.50
2022-09-29T00:35:28.464Z,2.03
2022-09-29T00:36:31.408Z,1.40
2022-09-29T00:37:33.323Z,2.00
2022-09-29T00:38:36.886Z,1.65
2022-09-29T00:39:38.929Z,1.50
2022-09-29T00:40:42.053Z,1.55
2022-09-29T00:41:44.049Z,1.80
2022-09-29T00:42:47.006Z,1.70
2022-09-29T00:43:55.813Z,1.80
2022-09-29T00:45:19.181Z,1.70
2022-09-29T00:46:30.333Z,1.75
2022-09-29T00:47:37.365Z,1.92
2022-09-29T00:48:41.281Z,1.35
2022-09-29T00:49:46.745Z,2.38
2022-09-29T00:50:52.040Z,1.80
2022-09-29T00:52:00.792Z,1.73
2022-09-29T00:53:04.115Z,1.70
2022-09-29T00:54:08.832Z,1.88
2022-09-29T00:55:17.549Z,2.50
2022-09-29T00:56:21.546Z,2.10
2022-09-29T00:57:26.834Z,2.28
2022-09-29T00:58:34.126Z,2.28
2022-09-29T00:59:46.395Z,2.20
2022-09-29T01:00:49.910Z,2.10
2022-09-29T01:01:52.886Z,2.20
2022-09-29T01:03:01.423Z,2.65
2022-09-29T01:04:09.419Z,2.00
2022-09-29T01:05:16.629Z,2.53
2022-09-29T01:06:22.904Z,2.67
2022-09-29T01:07:27.422Z,2.10
2022-09-29T01:08:37.641Z,2.83
2022-09-29T01:09:41.607Z,2.50
2022-09-29T01:10:45.049Z,2.33
2022-09-29T01:11:48.153Z,2.00
2022-09-29T01:12:50.703Z,2.28
2022-09-29T01:13:55.759Z,2.33
2022-09-29T01:14:57.849Z,2.50
2022-09-29T01:16:01.006Z,2.65
2022-09-29T01:17:03.509Z,2.05
2022-09-29T01:18:06.829Z,2.50
2022-09-29T01:19:15.372Z,2.60
2022-09-29T01:20:20.576Z,2.72
2022-09-29T01:21:32.610Z,2.88
2022-09-29T01:23:13.459Z,2.70
2022-09-29T01:24:43.285Z,2.33
2022-09-29T01:26:18.289Z,2.70
2022-09-29T01:27:32.650Z,2.30
2022-09-29T01:29:03.072Z,2.83
2022-09-29T01:30:22.225Z,1.90
2022-09-29T01:31:31.742Z,1.90
2022-09-29T01:32:58.613Z,2.00
2022-09-29T01:34:07.775Z,2.25
2022-09-29T01:35:14.980Z,2.40
2022-09-29T01:36:27.994Z,2.35
2022-09-29T01:37:44.587Z,2.10
2022-09-29T01:38:58.006Z,2.50
2022-09-29T01:40:06.606Z,1.92
2022-09-29T01:41:17.291Z,2.33
2022-09-29T01:42:23.153Z,2.10
2022-09-29T01:43:33.109Z,2.67
2022-09-29T01:44:39.673Z,2.10
2022-09-29T01:45:47.850Z,3.00
2022-09-29T01:46:55.249Z,2.15
2022-09-29T01:48:03.139Z,2.53
2022-09-29T01:49:06.236Z,2.40
2022-09-29T01:50:14.300Z,2.00
2022-09-29T01:51:21.428Z,2.22
2022-09-29T01:52:28.829Z,2.40
2022-09-29T01:53:35.920Z,2.22
2022-09-29T01:54:47.047Z,2.40
2022-09-29T01:55:53.897Z,2.45
2022-09-29T01:57:03.414Z,2.03
2022-09-29T01:58:07.805Z,2.58
2022-09-29T01:59:16.975Z,2.05
2022-09-29T02:00:23.894Z,1.90
2022-09-29T02:01:29.449Z,2.00
2022-09-29T02:02:39.033Z,2.10
2022-09-29T02:03:44.342Z,2.05
2022-09-29T02:04:52.237Z,2.20
2022-09-29T02:05:58.437Z,2.40
2022-09-29T02:07:09.004Z,2.00
2022-09-29T02:08:15.050Z,2.22
2022-09-29T02:09:23.020Z,2.30
2022-09-29T02:10:31.128Z,1.90
2022-09-29T02:11:39.146Z,2.45
2022-09-29T02:12:43.770Z,2.10
2022-09-29T02:13:50.478Z,2.10
2022-09-29T02:14:55.066Z,2.63
2022-09-29T02:15:58.750Z,2.03
2022-09-29T02:17:08.545Z,2.13
2022-09-29T02:18:16.333Z,1.90
2022-09-29T02:19:29.325Z,1.77
2022-09-29T02:20:32.482Z,1.60
2022-09-29T02:21:36.344Z,2.53
2022-09-29T02:22:38.840Z,2.20
2022-09-29T02:23:42.139Z,1.80
2022-09-29T02:24:44.814Z,2.38
2022-09-29T02:25:49.912Z,2.22
2022-09-29T02:26:52.483Z,1.70
2022-09-29T02:27:55.821Z,2.20
2022-09-29T02:28:58.437Z,2.30
2022-09-29T02:30:01.474Z,2.30
2022-09-29T02:31:03.710Z,2.50
2022-09-29T02:32:09.947Z,2.00
2022-09-29T02:33:22.815Z,2.00
2022-09-29T02:34:26.138Z,1.45
2022-09-29T02:35:37.433Z,2.10
2022-09-29T02:36:48.740Z,2.00
2022-09-29T02:38:04.069Z,1.70
2022-09-29T02:39:16.214Z,1.65
2022-09-29T02:40:37.402Z,2.10
2022-09-29T02:41:51.403Z,2.30
2022-09-29T02:43:10.186Z,2.63
2022-09-29T02:44:32.170Z,3.03
2022-09-29T02:45:44.491Z,2.20
2022-09-29T02:47:03.649Z,2.70
2022-09-29T02:48:16.445Z,2.80
2022-09-29T02:49:34.338Z,2.58
2022-09-29T02:50:57.410Z,2.70
2022-09-29T02:52:10.981Z,2.60
2022-09-29T02:53:23.104Z,2.75
2022-09-29T02:54:39.021Z,2.70
2022-09-29T02:55:49.641Z,2.58
2022-09-29T02:57:06.146Z,2.58
2022-09-29T02:58:14.169Z,2.15
2022-09-29T02:59:21.523Z,2.65
2022-09-29T03:00:24.312Z,2.78
2022-09-29T03:01:27.397Z,2.47
2022-09-29T03:02:29.409Z,4.00
2022-09-29T03:03:32.463Z,2.80
2022-09-29T03:04:36.050Z,2.35
2022-09-29T03:05:39.256Z,2.83
2022-09-29T03:06:41.214Z,2.83
2022-09-29T03:07:44.872Z,3.00
2022-09-29T03:08:46.874Z,2.60
2022-09-29T03:09:50.261Z,2.67
2022-09-29T03:10:52.982Z,3.70
2022-09-29T03:11:56.020Z,2.97
2022-09-29T03:12:58.021Z,3.15
2022-09-29T03:14:01.637Z,3.83
2022-09-29T03:15:04.794Z,2.90
2022-09-29T03:16:07.906Z,3.00
2022-09-29T03:17:10.166Z,3.45
2022-09-29T03:18:13.257Z,3.28
2022-09-29T03:19:15.237Z,2.45
2022-09-29T03:20:19.742Z,3.22
2022-09-29T03:21:21.765Z,2.47
2022-09-29T03:22:24.809Z,2.72
2022-09-29T03:23:26.857Z,2.53
2022-09-29T03:24:29.833Z,2.78
2022-09-29T03:25:31.807Z,2.60
2022-09-29T03:26:34.986Z,3.80
2022-09-29T03:27:38.297Z,2.85
2022-09-29T03:28:41.367Z,3.15
2022-09-29T03:29:43.356Z,3.00
2022-09-29T03:30:47.642Z,2.53
2022-09-29T03:31:49.672Z,2.60
2022-09-29T03:32:52.781Z,2.95
2022-09-29T03:33:57.210Z,3.72
2022-09-29T03:35:00.230Z,3.58
2022-09-29T03:36:05.364Z,3.65
2022-09-29T03:37:11.287Z,3.25
2022-09-29T03:38:13.336Z,2.83
2022-09-29T03:39:18.917Z,2.55
2022-09-29T03:40:21.977Z,2.28
2022-09-29T03:41:24.147Z,2.28
2022-09-29T03:42:28.286Z,2.63
2022-09-29T03:43:30.513Z,2.72
2022-09-29T03:44:33.788Z,2.22
2022-09-29T03:45:35.837Z,2.60
2022-09-29T03:46:38.888Z,2.45
2022-09-29T03:47:40.888Z,2.60
2022-09-29T03:48:43.949Z,2.70
2022-09-29T03:49:45.921Z,3.00
2022-09-29T03:50:50.449Z,3.00
2022-09-29T03:51:53.908Z,3.22
2022-09-29T03:52:56.901Z,3.50
2022-09-29T03:53:58.844Z,3.40
2022-09-29T03:55:01.753Z,2.67
2022-09-29T03:56:04.345Z,2.42
2022-09-29T03:57:07.314Z,2.53
2022-09-29T03:58:09.244Z,2.60
2022-09-29T03:59:12.393Z,2.30
2022-09-29T04:00:16.437Z,2.47
2022-09-29T04:01:18.490Z,2.65
2022-09-29T04:02:21.782Z,2.85
2022-09-29T04:03:23.991Z,3.92
2022-09-29T04:04:27.139Z,2.58
2022-09-29T04:05:30.115Z,2.55
2022-09-29T04:06:33.163Z,2.80
2022-09-29T04:07:36.444Z,2.70
2022-09-29T04:08:39.829Z,2.88
2022-09-29T04:09:41.939Z,2.42
2022-09-29T04:10:47.569Z,2.90
2022-09-29T04:11:49.581Z,2.63
2022-09-29T04:12:52.506Z,4.00
2022-09-29T04:13:54.506Z,3.40
2022-09-29T04:14:57.410Z,4.05
2022-09-29T04:16:00.315Z,3.35
2022-09-29T04:17:03.358Z,2.80
2022-09-29T04:18:06.201Z,2.88
2022-09-29T04:19:09.191Z,2.90
2022-09-29T04:20:11.243Z,3.20
2022-09-29T04:21:14.270Z,2.90
2022-09-29T04:22:18.361Z,3.38
2022-09-29T04:23:23.058Z,3.47
2022-09-29T04:24:25.061Z,2.83
2022-09-29T04:25:28.911Z,3.20
2022-09-29T04:26:30.900Z,3.00
2022-09-29T04:27:33.913Z,3.42
2022-09-29T04:28:37.433Z,3.30
2022-09-29T04:29:40.449Z,3.30
2022-09-29T04:30:42.522Z,4.65
2022-09-29T04:31:45.568Z,4.18
2022-09-29T04:32:47.614Z,3.40
2022-09-29T04:33:50.548Z,3.05
2022-09-29T04:34:52.537Z,4.05
2022-09-29T04:35:55.573Z,4.07
2022-09-29T04:36:57.573Z,4.70
2022-09-29T04:38:00.735Z,4.60
2022-09-29T04:39:04.376Z,4.50
2022-09-29T04:40:08.262Z,4.50
2022-09-29T04:41:10.252Z,3.40
2022-09-29T04:42:13.221Z,3.55
2022-09-29T04:43:15.660Z,3.85
2022-09-29T04:44:20.229Z,3.00
2022-09-29T04:45:22.184Z,2.90
2022-09-29T04:46:25.157Z,3.85
2022-09-29T04:47:27.212Z,3.38
2022-09-29T04:48:34.891Z,3.30
2022-09-29T04:49:56.024Z,3.63
2022-09-29T04:50:58.039Z,4.25
2022-09-29T04:52:01.142Z,3.72
2022-09-29T04:53:03.153Z,3.55
2022-09-29T04:54:07.709Z,4.20
2022-09-29T04:55:11.292Z,3.58
2022-09-29T04:56:14.216Z,4.03
2022-09-29T04:57:17.244Z,3.50
2022-09-29T04:58:20.441Z,3.50
2022-09-29T04:59:22.561Z,2.60
2022-09-29T05:00:25.649Z,3.35
2022-09-29T05:01:27.950Z,3.55
2022-09-29T05:02:31.199Z,3.65
2022-09-29T05:03:33.425Z,3.40
2022-09-29T05:04:36.372Z,3.58
2022-09-29T05:05:38.391Z,2.97
2022-09-29T05:06:41.424Z,3.50
2022-09-29T05:07:44.466Z,3.63
2022-09-29T05:08:47.498Z,3.83
2022-09-29T05:09:51.017Z,3.90
2022-09-29T05:10:54.131Z,3.90
2022-09-29T05:11:56.278Z,5.10
2022-09-29T05:12:59.282Z,4.60
2022-09-29T05:14:01.306Z,5.07
2022-09-29T05:15:06.278Z,4.40
2022-09-29T05:16:08.389Z,3.80
2022-09-29T05:17:11.465Z,3.88
2022-09-29T05:18:13.494Z,4.05
2022-09-29T05:19:16.469Z,4.10
2022-09-29T05:20:18.489Z,4.10
2022-09-29T05:21:29.452Z,4.85
2022-09-29T05:22:31.798Z,3.28
2022-09-29T05:23:35.282Z,4.05
2022-09-29T05:24:37.222Z,4.10
2022-09-29T05:25:41.701Z,3.70
2022-09-29T05:26:43.672Z,3.40
2022-09-29T05:27:46.678Z,3.78
2022-09-29T05:28:48.710Z,4.85
2022-09-29T05:29:51.733Z,4.00
2022-09-29T05:30:53.765Z,3.95
2022-09-29T05:31:56.967Z,4.05
2022-09-29T05:32:59.291Z,3.63
2022-09-29T05:34:02.317Z,4.22
2022-09-29T05:35:04.929Z,4.07
2022-09-29T05:36:08.958Z,4.40
2022-09-29T05:37:11.492Z,4.68
2022-09-29T05:38:14.424Z,3.75
2022-09-29T05:39:17.675Z,4.43
2022-09-29T05:40:19.861Z,3.95
2022-09-29T05:41:24.283Z,4.40
2022-09-29T05:42:27.637Z,4.00
2022-09-29T05:43:30.689Z,4.15
2022-09-29T05:44:33.639Z,4.65
2022-09-29T05:45:36.621Z,4.75
2022-09-29T05:46:39.657Z,6.00
2022-09-29T05:47:43.945Z,5.90
2022-09-29T05:48:47.406Z,5.05
2022-09-29T05:49:49.758Z,5.50
2022-09-29T05:50:52.778Z,4.90
2022-09-29T05:51:54.753Z,5.05
2022-09-29T05:52:58.542Z,4.93
2022-09-29T05:54:02.506Z,4.57
2022-09-29T05:55:05.579Z,4.15
2022-09-29T05:56:09.679Z,4.10
2022-09-29T05:57:14.241Z,3.78
2022-09-29T05:58:16.853Z,3.38
2022-09-29T05:59:19.959Z,3.70
2022-09-29T06:00:22.990Z,4.70
2022-09-29T06:01:26.436Z,4.00
2022-09-29T06:02:29.552Z,3.45
2022-09-29T06:03:33.362Z,4.00
2022-09-29T06:04:40.714Z,3.47
2022-09-29T06:05:43.341Z,3.65
2022-09-29T06:06:47.433Z,3.40
2022-09-29T06:07:49.373Z,3.65
2022-09-29T06:08:52.946Z,2.88
2022-09-29T06:09:55.930Z,3.60
2022-09-29T06:11:03.362Z,3.47
2022-09-29T06:12:06.514Z,3.63
2022-09-29T06:13:10.118Z,3.90
2022-09-29T06:14:13.410Z,3.15
2022-09-29T06:15:15.513Z,3.50
2022-09-29T06:16:21.459Z,3.72
2022-09-29T06:17:24.433Z,4.40
2022-09-29T06:18:26.504Z,3.78
2022-09-29T06:19:29.518Z,3.35
2022-09-29T06:20:33.242Z,3.80
2022-09-29T06:21:37.764Z,3.42
2022-09-29T06:22:39.733Z,3.63
2022-09-29T06:23:42.913Z,3.72
2022-09-29T06:24:44.861Z,3.40
2022-09-29T06:25:47.878Z,4.25
2022-09-29T06:26:50.832Z,3.13
2022-09-29T06:27:52.850Z,3.42
2022-09-29T06:28:58.557Z,3.50
2022-09-29T06:30:00.862Z,3.10
2022-09-29T06:31:06.444Z,3.50
2022-09-29T06:32:08.488Z,3.45
2022-09-29T06:33:11.562Z,3.35
2022-09-29T06:34:13.633Z,2.70
2022-09-29T06:35:34.497Z,2.65
2022-09-29T06:36:57.746Z,3.10
2022-09-29T06:38:02.821Z,3.00
2022-09-29T06:39:06.281Z,2.88
2022-09-29T06:40:11.930Z,3.35
2022-09-29T06:41:13.908Z,2.78
2022-09-29T06:42:16.820Z,3.00
2022-09-29T06:43:18.913Z,2.80
2022-09-29T06:44:25.110Z,2.80
2022-09-29T06:45:28.442Z,3.05
2022-09-29T06:46:30.832Z,3.33
2022-09-29T06:47:33.770Z,3.08
2022-09-29T06:48:35.681Z,3.00
2022-09-29T06:49:38.710Z,3.60
2022-09-29T06:50:41.116Z,3.55
2022-09-29T06:51:46.425Z,3.20
2022-09-29T06:53:01.517Z,4.05
2022-09-29T06:54:11.598Z,3.63
2022-09-29T06:55:14.347Z,3.38
2022-09-29T06:56:18.041Z,3.30
2022-09-29T06:57:20.989Z,4.10
2022-09-29T06:58:23.008Z,3.78
2022-09-29T06:59:27.381Z,3.30
2022-09-29T07:00:29.338Z,3.15
2022-09-29T07:01:32.356Z,3.50
2022-09-29T07:02:34.510Z,3.78
2022-09-29T07:03:37.683Z,2.95
2022-09-29T07:04:40.598Z,3.22
2022-09-29T07:05:52.683Z,2.75
2022-09-29T07:07:00.299Z,3.05
2022-09-29T07:08:03.688Z,3.20
2022-09-29T07:09:06.656Z,3.15
2022-09-29T07:10:09.494Z,3.30
2022-09-29T07:11:13.084Z,3.00
2022-09-29T07:12:15.119Z,3.90
2022-09-29T07:13:18.278Z,2.80
2022-09-29T07:14:23.234Z,3.22
2022-09-29T07:15:31.501Z,2.90
2022-09-29T07:16:34.714Z,2.75
2022-09-29T07:17:36.713Z,3.45
2022-09-29T07:18:42.069Z,3.05
2022-09-29T07:19:45.301Z,3.25
2022-09-29T07:20:47.269Z,3.85
2022-09-29T07:21:50.255Z,3.53
2022-09-29T07:22:52.363Z,3.47
2022-09-29T07:23:59.982Z,3.00
2022-09-29T07:25:05.876Z,2.97
2022-09-29T07:26:08.104Z,3.10
2022-09-29T07:27:11.043Z,3.00
2022-09-29T07:28:13.510Z,3.10
2022-09-29T07:29:16.680Z,2.95
2022-09-29T07:30:19.965Z,3.50
2022-09-29T07:31:25.124Z,2.53
2022-09-29T07:32:28.622Z,2.17
2022-09-29T07:33:38.185Z,2.10
2022-09-29T07:34:42.058Z,2.58
2022-09-29T07:35:45.028Z,2.50
2022-09-29T07:36:47.048Z,2.20
2022-09-29T07:37:52.906Z,2.00
2022-09-29T07:38:54.828Z,2.00
2022-09-29T07:39:58.108Z,2.17
2022-09-29T07:41:01.809Z,2.30
2022-09-29T07:42:08.984Z,1.95
2022-09-29T07:43:11.315Z,1.63
2022-09-29T07:44:14.334Z,1.70
2022-09-29T07:45:16.444Z,2.20
2022-09-29T07:46:19.458Z,1.67
2022-09-29T07:47:23.405Z,2.28
2022-09-29T07:48:31.426Z,1.70
2022-09-29T07:49:35.262Z,2.22
2022-09-29T07:50:37.341Z,1.70
2022-09-29T07:51:40.325Z,1.60
2022-09-29T07:52:42.275Z,2.22
2022-09-29T07:53:46.093Z,1.90
2022-09-29T07:54:49.147Z,2.30
2022-09-29T07:55:51.230Z,2.30
2022-09-29T07:56:54.134Z,2.15
2022-09-29T07:57:56.934Z,2.15
2022-09-29T07:58:59.947Z,2.22
2022-09-29T08:00:02.181Z,2.40
2022-09-29T08:01:16.344Z,1.75
2022-09-29T08:02:18.589Z,1.90
2022-09-29T08:03:25.855Z,2.20
2022-09-29T08:04:28.827Z,2.00
2022-09-29T08:05:33.478Z,1.90
2022-09-29T08:06:36.606Z,1.90
2022-09-29T08:07:38.589Z,1.73
2022-09-29T08:08:51.584Z,1.52
2022-09-29T08:10:04.199Z,1.52
2022-09-29T08:11:27.794Z,1.45
2022-09-29T08:12:42.264Z,1.75
2022-09-29T08:13:47.849Z,1.27
2022-09-29T08:14:51.006Z,1.95
2022-09-29T08:15:59.307Z,1.60
2022-09-29T08:17:02.446Z,1.40
2022-09-29T08:18:04.727Z,1.70
2022-09-29T08:19:09.331Z,1.35
2022-09-29T08:20:11.377Z,1.60
2022-09-29T08:21:15.762Z,1.67
2022-09-29T08:22:17.890Z,1.90
2022-09-29T08:23:20.888Z,1.20
2022-09-29T08:24:23.529Z,1.60
2022-09-29T08:25:26.955Z,1.30
2022-09-29T08:26:39.960Z,1.40
2022-09-29T08:27:54.764Z,1.50
2022-09-29T08:29:07.006Z,1.40
2022-09-29T08:30:12.394Z,1.40
2022-09-29T08:31:20.808Z,1.23
2022-09-29T08:32:22.828Z,1.30
2022-09-29T08:33:27.033Z,1.20
2022-09-29T08:34:31.705Z,1.30
2022-09-29T08:35:34.086Z,0.95
2022-09-29T08:36:37.697Z,1.20
2022-09-29T08:37:39.700Z,1.05
2022-09-29T08:38:46.683Z,0.90
2022-09-29T08:39:50.453Z,0.90
2022-09-29T08:40:54.436Z,0.85
2022-09-29T08:42:03.597Z,0.82
2022-09-29T08:43:19.465Z,0.90
2022-09-29T08:44:39.633Z,0.90
2022-09-29T08:45:58.294Z,0.98
2022-09-29T08:47:11.217Z,0.93
2022-09-29T08:48:23.250Z,0.80
2022-09-29T08:49:33.387Z,1.05
2022-09-29T08:50:44.325Z,0.93
2022-09-29T08:51:48.639Z,1.45
2022-09-29T08:52:56.569Z,1.25
2022-09-29T08:54:04.136Z,1.15
2022-09-29T08:55:22.758Z,1.15
2022-09-29T08:56:27.473Z,1.00
2022-09-29T08:57:30.685Z,1.15
2022-09-29T08:58:35.471Z,1.05
2022-09-29T08:59:37.841Z,1.15
2022-09-29T09:00:44.783Z,0.90
2022-09-29T09:02:02.058Z,0.80
2022-09-29T09:03:22.419Z,1.10
2022-09-29T09:04:53.062Z,0.90
2022-09-29T09:06:12.170Z,1.05
2022-09-29T09:07:22.369Z,0.88
2022-09-29T09:08:45.178Z,0.80
2022-09-29T09:10:00.076Z,0.80
2022-09-29T09:11:16.185Z,1.00
2022-09-29T09:12:56.766Z,1.00
2022-09-29T09:14:12.998Z,0.90
2022-09-29T09:15:28.858Z,1.05
2022-09-29T09:16:38.345Z,0.90
2022-09-29T09:17:54.495Z,1.35
2022-09-29T09:19:31.138Z,0.80
2022-09-29T09:20:36.863Z,0.88
2022-09-29T09:21:43.618Z,1.00
2022-09-29T09:22:56.751Z,0.80
2022-09-29T09:24:09.756Z,1.00
2022-09-29T09:25:22.199Z,1.00
2022-09-29T09:26:34.746Z,1.30
2022-09-29T09:27:41.658Z,1.48
2022-09-29T09:28:48.866Z,1.33
2022-09-29T09:30:01.714Z,1.20
2022-09-29T09:31:10.565Z,1.10
2022-09-29T09:32:16.295Z,1.35
2022-09-29T09:33:31.349Z,1.10
2022-09-29T09:34:44.159Z,1.60
2022-09-29T09:35:57.788Z,1.15
2022-09-29T09:37:08.642Z,1.30
2022-09-29T09:38:17.916Z,1.00
2022-09-29T09:39:26.607Z,1.00
2022-09-29T09:40:38.498Z,1.00
2022-09-29T09:41:44.198Z,1.10
2022-09-29T09:42:52.490Z,1.20
2022-09-29T09:44:00.070Z,1.00
2022-09-29T09:45:07.193Z,1.10
2022-09-29T09:46:20.137Z,1.17
2022-09-29T09:47:27.192Z,0.90
2022-09-29T09:48:36.359Z,1.00
2022-09-29T09:49:43.956Z,0.93
2022-09-29T09:50:50.047Z,0.98
2022-09-29T09:51:59.854Z,0.85
2022-09-29T09:53:13.191Z,1.10
2022-09-29T09:54:29.096Z,0.88
2022-09-29T09:55:36.852Z,0.95
2022-09-29T09:57:00.055Z,0.82
2022-09-29T09:58:25.335Z,0.90
2022-09-29T09:59:40.350Z,0.70
2022-09-29T10:00:45.319Z,0.80
2022-09-29T10:01:48.482Z,1.15
2022-09-29T10:02:53.762Z,0.85
2022-09-29T10:03:58.477Z,0.80
2022-09-29T10:05:04.162Z,0.85
2022-09-29T10:06:09.694Z,0.98
2022-09-29T10:09:24.630Z,0.90
2022-09-29T10:10:31.882Z,0.90
2022-09-29T10:11:35.427Z,1.00
2022-09-29T10:12:37.468Z,0.73
2022-09-29T10:13:40.825Z,0.68
2022-09-29T10:14:52.718Z,0.80
2022-09-29T10:16:01.770Z,0.77
2022-09-29T10:17:10.451Z,1.00
2022-09-29T10:18:17.828Z,0.90
2022-09-29T10:19:23.439Z,0.73
2022-09-29T10:20:38.516Z,0.88
2022-09-29T10:21:45.251Z,0.70
2022-09-29T10:22:51.183Z,1.00
2022-09-29T10:23:56.575Z,0.95
2022-09-29T10:25:09.187Z,0.90
2022-09-29T10:26:18.573Z,1.02
2022-09-29T10:27:25.579Z,0.75
2022-09-29T10:28:37.792Z,0.80
2022-09-29T10:29:42.821Z,0.80
2022-09-29T10:30:45.338Z,0.80
2022-09-29T10:32:01.272Z,0.90
2022-09-29T10:33:10.493Z,1.38
2022-09-29T10:34:21.465Z,0.93
2022-09-29T10:35:26.966Z,0.95
2022-09-29T10:36:34.141Z,1.00
2022-09-29T10:37:40.617Z,0.80
2022-09-29T10:38:47.326Z,0.90
2022-09-29T10:39:50.884Z,0.80
2022-09-29T10:40:58.829Z,0.93
2022-09-29T10:42:05.153Z,1.00
2022-09-29T10:43:24.074Z,0.80
2022-09-29T10:44:32.610Z,1.30
2022-09-29T10:45:49.222Z,1.50
2022-09-29T10:46:54.917Z,0.85
2022-09-29T10:48:14.414Z,1.00
2022-09-29T10:49:18.610Z,1.02
2022-09-29T10:50:24.179Z,1.00
2022-09-29T10:51:26.358Z,0.80
2022-09-29T10:52:30.178Z,1.02
2022-09-29T10:53:39.193Z,0.90
2022-09-29T10:54:55.230Z,0.98
2022-09-29T10:55:58.906Z,1.00
2022-09-29T10:57:13.550Z,1.13
2022-09-29T10:58:44.282Z,1.00
2022-09-29T10:59:50.527Z,1.40
2022-09-29T11:01:07.343Z,1.10
2022-09-29T11:02:21.903Z,1.00
2022-09-29T11:03:27.328Z,1.10
2022-09-29T11:04:33.177Z,1.00
2022-09-29T11:05:38.252Z,1.05
2022-09-29T11:06:44.113Z,0.93
2022-09-29T11:07:49.899Z,1.20
2022-09-29T11:08:59.015Z,1.42
2022-09-29T11:10:02.468Z,1.42
2022-09-29T11:11:07.262Z,1.45
2022-09-29T11:12:32.671Z,1.30
2022-09-29T11:13:37.348Z,1.30
2022-09-29T11:14:43.957Z,1.20
2022-09-29T11:15:46.032Z,1.40
2022-09-29T11:16:55.861Z,1.00
2022-09-29T11:17:59.292Z,1.10
2022-09-29T11:19:05.304Z,1.00
2022-09-29T11:20:16.459Z,1.35
2022-09-29T11:21:58.287Z,1.50
2022-09-29T11:23:14.519Z,1.10
2022-09-29T11:24:29.563Z,1.35
2022-09-29T11:25:44.099Z,1.33
2022-09-29T11:26:50.953Z,1.10
2022-09-29T11:28:26.758Z,1.10
2022-09-29T11:29:38.843Z,1.30
2022-09-29T11:30:53.228Z,1.40
2022-09-29T11:32:13.718Z,1.20
2022-09-29T11:33:25.714Z,1.52
2022-09-29T11:34:45.206Z,1.20
2022-09-29T11:35:55.664Z,1.52
2022-09-29T11:37:07.430Z,1.35
2022-09-29T11:38:28.279Z,1.40
2022-09-29T11:39:50.822Z,0.95
2022-09-29T11:41:05.958Z,1.10
2022-09-29T11:42:21.828Z,0.85
2022-09-29T11:43:44.949Z,1.00
2022-09-29T11:45:00.093Z,0.80
2022-09-29T11:46:11.994Z,1.98
2022-09-29T11:47:29.110Z,0.90
2022-09-29T11:48:56.383Z,1.00
2022-09-29T11:50:11.434Z,1.13
2022-09-29T11:51:24.255Z,1.45
2022-09-29T11:52:56.494Z,1.13
2022-09-29T11:54:22.988Z,1.10
2022-09-29T11:55:45.286Z,1.17
2022-09-29T11:56:54.930Z,1.02
2022-09-29T11:58:06.695Z,1.00
2022-09-29T11:59:32.564Z,0.90
2022-09-29T12:01:02.013Z,1.10
2022-09-29T12:02:33.215Z,0.98
2022-09-29T12:03:47.146Z,0.98
2022-09-29T12:04:58.347Z,0.93
2022-09-29T12:06:41.388Z,0.90
2022-09-29T12:07:57.809Z,0.98
2022-09-29T12:09:18.451Z,1.10
2022-09-29T12:10:37.760Z,1.40
2022-09-29T12:12:11.631Z,0.88
2022-09-29T12:13:23.922Z,1.00
2022-09-29T12:14:41.175Z,1.30
2022-09-29T12:15:52.070Z,1.27
2022-09-29T12:17:00.646Z,1.40
2022-09-29T12:18:10.371Z,0.95
2022-09-29T12:19:17.486Z,1.10
2022-09-29T12:20:24.122Z,1.02
2022-09-29T12:21:33.098Z,1.02
2022-09-29T12:22:37.026Z,1.27
2022-09-29T12:23:42.154Z,1.33
2022-09-29T12:24:48.309Z,1.40
2022-09-29T12:25:58.569Z,1.20
2022-09-29T12:27:02.662Z,1.30
2022-09-29T12:28:12.991Z,1.30
2022-09-29T12:29:33.361Z,1.35
2022-09-29T12:30:45.044Z,1.15
2022-09-29T12:31:51.370Z,1.25
2022-09-29T12:32:58.836Z,1.20
2022-09-29T12:34:06.683Z,1.30
2022-09-29T12:35:15.286Z,1.17
2022-09-29T12:36:50.394Z,1.20
2022-09-29T12:37:59.172Z,1.40
2022-09-29T12:39:10.557Z,1.25
2022-09-29T12:40:20.266Z,1.17
2022-09-29T12:41:27.193Z,0.95
2022-09-29T12:42:49.442Z,1.05
2022-09-29T12:44:01.668Z,0.90
2022-09-29T12:45:12.907Z,0.90
2022-09-29T12:46:22.193Z,0.90
2022-09-29T12:47:36.276Z,1.40
2022-09-29T12:48:53.450Z,1.00
2022-09-29T12:50:04.476Z,1.33
2022-09-29T12:51:14.714Z,1.35
2022-09-29T12:52:26.496Z,1.30
2022-09-29T12:53:35.456Z,1.50
2022-09-29T12:54:45.056Z,1.65
2022-09-29T12:55:51.775Z,1.20
2022-09-29T12:56:59.674Z,1.75
2022-09-29T12:58:06.249Z,1.50
2022-09-29T12:59:17.857Z,1.40
2022-09-29T13:00:21.503Z,1.60
2022-09-29T13:01:27.922Z,1.85
2022-09-29T13:02:50.407Z,2.05
2022-09-29T13:04:17.785Z,2.00
2022-09-29T13:05:41.994Z,2.40
2022-09-29T13:07:13.829Z,2.53
2022-09-29T13:08:56.949Z,2.60
2022-09-29T13:10:23.154Z,3.22
2022-09-29T13:11:52.295Z,3.28
2022-09-29T13:13:21.330Z,3.05
2022-09-29T13:15:09.410Z,2.88
2022-09-29T13:16:23.755Z,2.75
2022-09-29T13:17:49.363Z,2.92
2022-09-29T13:19:45.693Z,3.40
2022-09-29T13:20:59.116Z,3.40
2022-09-29T13:22:19.116Z,2.95
2022-09-29T13:23:42.168Z,3.38
2022-09-29T13:24:54.580Z,3.08
2022-09-29T13:26:10.346Z,3.10
2022-09-29T13:27:29.111Z,3.40
2022-09-29T13:28:37.573Z,2.78
2022-09-29T13:29:47.155Z,3.30
2022-09-29T13:30:50.811Z,3.85
2022-09-29T13:31:56.817Z,3.65
2022-09-29T13:33:10.356Z,3.40
2022-09-29T13:34:26.780Z,3.25
2022-09-29T13:35:43.937Z,3.50
2022-09-29T13:36:47.343Z,3.22
2022-09-29T13:50:20.033Z,3.55
2022-09-29T13:55:49.293Z,4.00
2022-09-29T13:57:41.415Z,4.22
2022-09-29T14:03:29.349Z,4.15
2022-09-29T14:08:03.458Z,4.15
2022-09-29T14:09:43.850Z,3.72
2022-09-29T14:11:20.545Z,4.95
2022-09-29T14:18:04.124Z,4.30
2022-09-29T14:20:00.640Z,3.75
2022-09-29T14:21:53.447Z,3.83
2022-09-29T14:23:02.043Z,3.67
2022-09-29T14:24:04.258Z,3.80
2022-09-29T14:25:25.979Z,3.80
2022-09-29T14:26:49.216Z,4.35
2022-09-29T14:28:01.511Z,4.03
2022-09-29T14:29:05.511Z,3.10
2022-09-29T14:30:18.166Z,3.80
2022-09-29T14:31:24.378Z,3.90
2022-09-29T14:32:36.889Z,4.70
2022-09-29T14:33:43.197Z,4.32
2022-09-29T14:34:46.824Z,4.43
2022-09-29T14:35:57.154Z,5.15
2022-09-29T14:37:03.855Z,6.00
2022-09-29T14:38:10.588Z,6.47
2022-09-29T14:39:25.993Z,5.60
2022-09-29T14:40:28.895Z,7.07
2022-09-29T14:41:34.239Z,6.28
2022-09-29T14:42:36.647Z,6.32
2022-09-29T14:43:42.944Z,6.65
2022-09-29T14:45:03.722Z,6.00
2022-09-29T14:46:52.826Z,7.95
2022-09-29T14:48:20.775Z,7.60
2022-09-29T14:50:08.721Z,7.10
2022-09-29T14:51:36.821Z,6.70
2022-09-29T14:52:56.030Z,6.03
2022-09-29T14:54:05.391Z,6.70
2022-09-29T14:55:16.362Z,6.50
2022-09-29T14:56:34.601Z,6.45
2022-09-29T14:58:02.040Z,6.43
2022-09-29T14:59:20.296Z,6.13
2022-09-29T15:00:33.758Z,5.75
2022-09-29T15:01:39.052Z,6.32
2022-09-29T15:02:45.741Z,6.45
2022-09-29T15:03:51.403Z,6.22
2022-09-29T15:04:54.593Z,6.70
2022-09-29T15:06:12.637Z,6.50
2022-09-29T15:07:17.789Z,6.43
2022-09-29T15:08:29.551Z,7.00
2022-09-29T15:09:38.291Z,7.55
2022-09-29T15:10:41.234Z,6.55
2022-09-29T15:11:46.691Z,7.97
2022-09-29T15:12:50.561Z,7.03
2022-09-29T15:13:55.206Z,7.60
2022-09-29T15:14:58.910Z,6.68
2022-09-29T15:16:04.533Z,7.63
2022-09-29T15:17:15.723Z,6.55
2022-09-29T15:18:33.002Z,6.75
2022-09-29T15:19:56.751Z,7.35
2022-09-29T15:21:06.165Z,6.78
2022-09-29T15:22:24.371Z,5.80
2022-09-29T15:23:57.411Z,6.60
2022-09-29T15:25:21.596Z,6.35
2022-09-29T15:26:27.886Z,7.25
2022-09-29T15:27:33.678Z,6.50
2022-09-29T15:28:39.339Z,7.93
2022-09-29T15:29:46.423Z,7.65
2022-09-29T15:30:53.375Z,8.00
2022-09-29T15:31:55.673Z,7.10
2022-09-29T15:34:21.352Z,7.82
2022-09-29T15:35:25.699Z,6.53
2022-09-29T15:36:34.843Z,7.65
2022-09-29T15:37:58.839Z,6.57
2022-09-29T15:39:07.496Z,6.60
2022-09-29T15:40:15.718Z,6.43
2022-09-29T15:41:27.441Z,6.70
2022-09-29T15:42:39.926Z,8.27
2022-09-29T15:43:46.741Z,6.65
2022-09-29T15:44:56.910Z,7.63